HAZ705 ZSPD-RCTP
Flight info
| Callsign | HAZ705 |
|---|---|
| Flight time | N/A |
| Altitude | 36100 |
| Route | MIGOL B591 KASKA/N0463F360 B591 BERBA/N0428F240 B591 BAKER |
| Aircraft | B738/M-SDE2E3FGHIRWXY/LB1 |
Departure
| Time | 2026-05-06 06:44 |
|---|---|
| Airport | Shanghai Pudong International Airport (ZSPD) |
Arrival
| Time | N/A |
|---|---|
| Airport | Taiwan Taoyuan International Airport (RCTP) |
| Time | Latitude | Longitude | Altitude | Speed | Heading |
|---|---|---|---|---|---|
| 2026-05-06 06:22 | 31.14745 | 121.79810 | 21 ft | 0 kts | 72° |
| 2026-05-06 06:29 | 31.14742 | 121.79803 | 21 ft | 2 kts | 72° |
| 2026-05-06 06:29 | 31.14738 | 121.79786 | 21 ft | 2 kts | 71° |
| 2026-05-06 06:29 | 31.14733 | 121.79768 | 21 ft | 2 kts | 71° |
| 2026-05-06 06:29 | 31.14728 | 121.79752 | 21 ft | 2 kts | 72° |
| 2026-05-06 06:30 | 31.14723 | 121.79735 | 21 ft | 2 kts | 71° |
| 2026-05-06 06:30 | 31.14720 | 121.79724 | 21 ft | 1 kts | 72° |
| 2026-05-06 06:30 | 31.14713 | 121.79709 | 21 ft | 2 kts | 42° |
| 2026-05-06 06:30 | 31.14701 | 121.79700 | 21 ft | 2 kts | 18° |
| 2026-05-06 06:31 | 31.14686 | 121.79697 | 21 ft | 2 kts | 351° |
| 2026-05-06 06:31 | 31.14679 | 121.79699 | 21 ft | 1 kts | 338° |
| 2026-05-06 06:31 | 31.14675 | 121.79701 | 21 ft | 0 kts | 341° |
| 2026-05-06 06:33 | 31.14676 | 121.79700 | 21 ft | 0 kts | 341° |
| 2026-05-06 06:33 | 31.14698 | 121.79693 | 21 ft | 5 kts | 344° |
| 2026-05-06 06:33 | 31.14754 | 121.79672 | 21 ft | 10 kts | 341° |
| 2026-05-06 06:34 | 31.14843 | 121.79640 | 21 ft | 15 kts | 342° |
| 2026-05-06 06:34 | 31.14922 | 121.79596 | 21 ft | 11 kts | 304° |
| 2026-05-06 06:34 | 31.14925 | 121.79512 | 21 ft | 10 kts | 254° |
| 2026-05-06 06:34 | 31.14908 | 121.79436 | 21 ft | 9 kts | 270° |
| 2026-05-06 06:35 | 31.14888 | 121.79374 | 21 ft | 7 kts | 248° |
| 2026-05-06 06:35 | 31.14880 | 121.79311 | 21 ft | 9 kts | 288° |
| 2026-05-06 06:35 | 31.14945 | 121.79262 | 21 ft | 13 kts | 342° |
| 2026-05-06 06:35 | 31.15028 | 121.79231 | 21 ft | 12 kts | 342° |
| 2026-05-06 06:36 | 31.15108 | 121.79201 | 21 ft | 12 kts | 342° |
| 2026-05-06 06:36 | 31.15202 | 121.79165 | 21 ft | 16 kts | 343° |
| 2026-05-06 06:36 | 31.15318 | 121.79121 | 21 ft | 17 kts | 341° |
| 2026-05-06 06:36 | 31.15432 | 121.79079 | 21 ft | 16 kts | 342° |
| 2026-05-06 06:37 | 31.15541 | 121.79037 | 21 ft | 16 kts | 340° |
| 2026-05-06 06:37 | 31.15647 | 121.78996 | 21 ft | 15 kts | 342° |
| 2026-05-06 06:37 | 31.15753 | 121.78957 | 21 ft | 17 kts | 342° |
| 2026-05-06 06:37 | 31.15889 | 121.78906 | 21 ft | 22 kts | 343° |
| 2026-05-06 06:38 | 31.16039 | 121.78848 | 21 ft | 22 kts | 342° |
| 2026-05-06 06:38 | 31.16145 | 121.78799 | 21 ft | 12 kts | 304° |
| 2026-05-06 06:38 | 31.16143 | 121.78718 | 21 ft | 4 kts | 252° |
| 2026-05-06 06:38 | 31.16143 | 121.78717 | 21 ft | 0 kts | 252° |
| 2026-05-06 06:42 | 31.16143 | 121.78716 | 21 ft | 0 kts | 252° |
| 2026-05-06 06:43 | 31.16138 | 121.78700 | 21 ft | 4 kts | 253° |
| 2026-05-06 06:43 | 31.16125 | 121.78647 | 21 ft | 8 kts | 250° |
| 2026-05-06 06:43 | 31.16081 | 121.78616 | 21 ft | 7 kts | 184° |
| 2026-05-06 06:43 | 31.16021 | 121.78634 | 21 ft | 14 kts | 162° |
| 2026-05-06 06:44 | 31.15706 | 121.78754 | 21 ft | 82 kts | 162° |
| 2026-05-06 06:44 | 31.14950 | 121.79039 | 21 ft | 142 kts | 162° |
| 2026-05-06 06:44 | 31.13901 | 121.79443 | 87 ft | 182 kts | 161° |
| 2026-05-06 06:44 | 31.12710 | 121.79882 | 904 ft | 176 kts | 160° |
| 2026-05-06 06:45 | 31.11594 | 121.80345 | 1661 ft | 174 kts | 162° |
| 2026-05-06 06:45 | 31.10374 | 121.80719 | 2138 ft | 182 kts | 166° |
| 2026-05-06 06:45 | 31.09291 | 121.80985 | 2741 ft | 177 kts | 169° |
| 2026-05-06 06:45 | 31.08087 | 121.81258 | 3338 ft | 177 kts | 167° |
| 2026-05-06 06:46 | 31.06891 | 121.81630 | 3838 ft | 181 kts | 163° |
| 2026-05-06 06:46 | 31.05678 | 121.82074 | 4393 ft | 181 kts | 162° |
| 2026-05-06 06:46 | 31.04478 | 121.82525 | 4885 ft | 185 kts | 162° |
| 2026-05-06 06:46 | 31.03262 | 121.82974 | 5350 ft | 190 kts | 163° |
| 2026-05-06 06:47 | 31.01939 | 121.83459 | 5655 ft | 207 kts | 163° |
| 2026-05-06 06:47 | 31.00520 | 121.83981 | 6028 ft | 221 kts | 163° |
| 2026-05-06 06:47 | 30.99013 | 121.84563 | 6435 ft | 234 kts | 160° |
| 2026-05-06 06:47 | 30.97440 | 121.85278 | 6818 ft | 249 kts | 158° |
| 2026-05-06 06:48 | 30.95890 | 121.86024 | 7175 ft | 264 kts | 158° |
| 2026-05-06 06:48 | 30.94327 | 121.86776 | 7562 ft | 276 kts | 158° |
| 2026-05-06 06:48 | 30.92525 | 121.87609 | 8144 ft | 283 kts | 160° |
| 2026-05-06 06:48 | 30.90636 | 121.88348 | 8788 ft | 287 kts | 163° |
| 2026-05-06 06:49 | 30.88713 | 121.89032 | 9404 ft | 293 kts | 164° |
| 2026-05-06 06:49 | 30.86743 | 121.89730 | 10070 ft | 298 kts | 162° |
| 2026-05-06 06:49 | 30.84808 | 121.90632 | 10710 ft | 304 kts | 151° |
| 2026-05-06 06:49 | 30.83175 | 121.92221 | 11300 ft | 310 kts | 127° |
| 2026-05-06 06:50 | 30.82145 | 121.94427 | 11971 ft | 313 kts | 108° |
| 2026-05-06 06:50 | 30.81668 | 121.96951 | 12336 ft | 327 kts | 94° |
| 2026-05-06 06:50 | 30.81761 | 121.99634 | 12721 ft | 339 kts | 77° |
| 2026-05-06 06:50 | 30.82396 | 122.02343 | 13042 ft | 354 kts | 71° |
| 2026-05-06 06:51 | 30.83205 | 122.05076 | 13345 ft | 368 kts | 69° |
| 2026-05-06 06:51 | 30.84086 | 122.07944 | 13668 ft | 383 kts | 69° |
| 2026-05-06 06:51 | 30.84981 | 122.10915 | 14015 ft | 395 kts | 69° |
| 2026-05-06 06:51 | 30.85866 | 122.13953 | 14554 ft | 401 kts | 70° |
| 2026-05-06 06:52 | 30.86745 | 122.17052 | 15158 ft | 405 kts | 70° |
| 2026-05-06 06:52 | 30.87628 | 122.20215 | 15759 ft | 410 kts | 70° |
| 2026-05-06 06:52 | 30.88505 | 122.23351 | 16352 ft | 414 kts | 69° |
| 2026-05-06 06:52 | 30.89486 | 122.26513 | 16936 ft | 417 kts | 65° |
| 2026-05-06 06:53 | 30.90793 | 122.29540 | 17553 ft | 416 kts | 56° |
| 2026-05-06 06:53 | 30.92428 | 122.32303 | 18131 ft | 417 kts | 50° |
| 2026-05-06 06:53 | 30.94255 | 122.34950 | 18669 ft | 420 kts | 47° |
| 2026-05-06 06:53 | 30.96174 | 122.37529 | 19237 ft | 423 kts | 45° |
| 2026-05-06 06:54 | 30.98056 | 122.40228 | 19717 ft | 430 kts | 51° |
| 2026-05-06 06:54 | 30.99523 | 122.43036 | 20199 ft | 437 kts | 60° |
| 2026-05-06 06:54 | 31.00661 | 122.46313 | 20733 ft | 444 kts | 69° |
| 2026-05-06 06:54 | 31.01352 | 122.49890 | 21153 ft | 453 kts | 79° |
| 2026-05-06 06:55 | 31.01537 | 122.53558 | 21671 ft | 459 kts | 88° |
| 2026-05-06 06:55 | 31.01372 | 122.57307 | 22110 ft | 465 kts | 91° |
| 2026-05-06 06:55 | 31.01093 | 122.61082 | 22548 ft | 469 kts | 92° |
| 2026-05-06 06:55 | 31.00810 | 122.64877 | 23054 ft | 472 kts | 91° |
| 2026-05-06 06:56 | 31.00567 | 122.68722 | 23528 ft | 474 kts | 91° |
| 2026-05-06 06:56 | 31.00381 | 122.72519 | 24002 ft | 476 kts | 90° |
| 2026-05-06 06:56 | 31.00243 | 122.76394 | 24464 ft | 479 kts | 89° |
| 2026-05-06 06:56 | 31.00147 | 122.80296 | 24953 ft | 482 kts | 88° |
| 2026-05-06 06:57 | 31.00085 | 122.84161 | 25426 ft | 484 kts | 87° |
| 2026-05-06 06:57 | 31.00045 | 122.88091 | 25837 ft | 488 kts | 87° |
| 2026-05-06 06:57 | 31.00014 | 122.92081 | 26252 ft | 492 kts | 88° |
| 2026-05-06 06:57 | 30.99867 | 122.96049 | 26678 ft | 496 kts | 91° |
| 2026-05-06 06:58 | 30.99421 | 123.00105 | 27086 ft | 502 kts | 98° |
| 2026-05-06 06:58 | 30.98585 | 123.04037 | 27578 ft | 505 kts | 103° |
| 2026-05-06 06:58 | 30.97484 | 123.07980 | 27983 ft | 509 kts | 107° |
| 2026-05-06 06:58 | 30.96251 | 123.11811 | 28636 ft | 506 kts | 109° |
| 2026-05-06 06:59 | 30.94943 | 123.15621 | 29206 ft | 504 kts | 109° |
| 2026-05-06 06:59 | 30.93625 | 123.19359 | 29734 ft | 503 kts | 109° |
| 2026-05-06 06:59 | 30.92288 | 123.23124 | 30285 ft | 502 kts | 109° |
| 2026-05-06 06:59 | 30.90955 | 123.26887 | 30782 ft | 501 kts | 109° |
| 2026-05-06 07:00 | 30.89634 | 123.30639 | 31303 ft | 499 kts | 109° |
| 2026-05-06 07:00 | 30.88399 | 123.34167 | 31850 ft | 496 kts | 108° |
| 2026-05-06 07:00 | 30.87112 | 123.37870 | 32391 ft | 493 kts | 108° |
| 2026-05-06 07:00 | 30.85833 | 123.41568 | 32874 ft | 491 kts | 108° |
| 2026-05-06 07:01 | 30.84572 | 123.45229 | 33300 ft | 490 kts | 108° |
| 2026-05-06 07:01 | 30.83287 | 123.48884 | 33845 ft | 488 kts | 109° |
| 2026-05-06 07:01 | 30.81913 | 123.52350 | 34229 ft | 490 kts | 114° |
| 2026-05-06 07:01 | 30.80222 | 123.55785 | 34619 ft | 492 kts | 120° |
| 2026-05-06 07:02 | 30.78230 | 123.59038 | 35044 ft | 493 kts | 126° |
| 2026-05-06 07:02 | 30.75967 | 123.62050 | 35492 ft | 492 kts | 132° |
| 2026-05-06 07:02 | 30.73459 | 123.64786 | 35930 ft | 492 kts | 138° |
| 2026-05-06 07:02 | 30.70661 | 123.67168 | 36114 ft | 494 kts | 151° |
| 2026-05-06 07:03 | 30.67459 | 123.68565 | 36131 ft | 492 kts | 170° |
| 2026-05-06 07:03 | 30.64024 | 123.68983 | 36128 ft | 490 kts | 181° |
| 2026-05-06 07:03 | 30.60563 | 123.68964 | 36120 ft | 490 kts | 183° |
| 2026-05-06 07:04 | 30.53740 | 123.69006 | 36119 ft | 489 kts | 181° |
| 2026-05-06 07:04 | 30.46946 | 123.69212 | 36121 ft | 492 kts | 181° |
| 2026-05-06 07:05 | 30.40139 | 123.68687 | 36125 ft | 485 kts | 195° |
| 2026-05-06 07:05 | 30.33642 | 123.66675 | 36114 ft | 485 kts | 198° |
| 2026-05-06 07:06 | 30.27014 | 123.64955 | 36112 ft | 486 kts | 192° |
| 2026-05-06 07:06 | 30.20266 | 123.64036 | 36112 ft | 489 kts | 187° |
| 2026-05-06 07:07 | 30.13434 | 123.63681 | 36109 ft | 491 kts | 184° |
| 2026-05-06 07:07 | 30.06600 | 123.63601 | 36108 ft | 490 kts | 182° |
| 2026-05-06 07:08 | 29.99739 | 123.63614 | 36109 ft | 492 kts | 182° |
| 2026-05-06 07:08 | 29.92867 | 123.63643 | 36107 ft | 491 kts | 182° |
| 2026-05-06 07:09 | 29.85994 | 123.63663 | 36106 ft | 493 kts | 182° |
| 2026-05-06 07:09 | 29.79119 | 123.63676 | 36109 ft | 493 kts | 182° |
| 2026-05-06 07:10 | 29.72225 | 123.63682 | 36107 ft | 493 kts | 182° |
| 2026-05-06 07:10 | 29.65339 | 123.63684 | 36107 ft | 494 kts | 182° |
| 2026-05-06 07:11 | 29.58454 | 123.63686 | 36106 ft | 493 kts | 182° |
| 2026-05-06 07:11 | 29.51865 | 123.63689 | 36108 ft | 494 kts | 182° |
| 2026-05-06 07:12 | 29.44931 | 123.63683 | 36106 ft | 494 kts | 182° |
| 2026-05-06 07:12 | 29.38011 | 123.63680 | 36107 ft | 496 kts | 182° |
| 2026-05-06 07:13 | 29.31085 | 123.63680 | 36108 ft | 496 kts | 183° |
| 2026-05-06 07:13 | 29.24191 | 123.63682 | 36109 ft | 496 kts | 182° |
| 2026-05-06 07:14 | 29.17224 | 123.63685 | 36105 ft | 497 kts | 183° |
| 2026-05-06 07:14 | 29.10291 | 123.63689 | 36106 ft | 497 kts | 183° |
| 2026-05-06 07:15 | 29.03367 | 123.63693 | 36104 ft | 497 kts | 183° |
| 2026-05-06 07:15 | 28.96409 | 123.63697 | 36111 ft | 499 kts | 183° |
| 2026-05-06 07:16 | 28.89442 | 123.63701 | 36105 ft | 498 kts | 183° |
| 2026-05-06 07:16 | 28.82502 | 123.63705 | 36101 ft | 497 kts | 183° |
| 2026-05-06 07:17 | 28.75554 | 123.63710 | 36103 ft | 499 kts | 183° |
| 2026-05-06 07:17 | 28.68578 | 123.63715 | 36109 ft | 498 kts | 183° |
| 2026-05-06 07:18 | 28.61647 | 123.63719 | 36110 ft | 499 kts | 183° |
| 2026-05-06 07:18 | 28.54668 | 123.63723 | 36108 ft | 500 kts | 183° |
| 2026-05-06 07:19 | 28.47783 | 123.63725 | 36108 ft | 500 kts | 183° |
| 2026-05-06 07:19 | 28.40829 | 123.63729 | 36108 ft | 497 kts | 184° |
| 2026-05-06 07:20 | 28.33893 | 123.63732 | 36109 ft | 499 kts | 183° |
| 2026-05-06 07:20 | 28.26889 | 123.63734 | 36103 ft | 501 kts | 183° |
| 2026-05-06 07:21 | 28.19882 | 123.63738 | 36107 ft | 500 kts | 184° |
| 2026-05-06 07:21 | 28.12904 | 123.63743 | 36109 ft | 499 kts | 184° |
| 2026-05-06 07:22 | 28.05667 | 123.63747 | 36106 ft | 501 kts | 184° |
| 2026-05-06 07:22 | 27.98669 | 123.63741 | 36099 ft | 498 kts | 186° |
| 2026-05-06 07:22 | 27.95257 | 123.63224 | 36103 ft | 489 kts | 201° |
| 2026-05-06 07:23 | 27.92108 | 123.61822 | 36108 ft | 480 kts | 214° |
| 2026-05-06 07:23 | 27.86574 | 123.57698 | 36099 ft | 473 kts | 224° |
| 2026-05-06 07:24 | 27.81410 | 123.53136 | 36106 ft | 469 kts | 225° |
| 2026-05-06 07:24 | 27.76241 | 123.48624 | 36102 ft | 472 kts | 224° |
| 2026-05-06 07:25 | 27.70975 | 123.44147 | 36103 ft | 473 kts | 224° |
| 2026-05-06 07:25 | 27.65560 | 123.39635 | 36099 ft | 471 kts | 223° |
| 2026-05-06 07:26 | 27.60245 | 123.35281 | 36091 ft | 471 kts | 223° |
| 2026-05-06 07:26 | 27.54904 | 123.30946 | 36093 ft | 472 kts | 222° |
| 2026-05-06 07:27 | 27.49556 | 123.26630 | 36089 ft | 472 kts | 222° |
| 2026-05-06 07:27 | 27.44212 | 123.22327 | 36085 ft | 471 kts | 222° |
| 2026-05-06 07:28 | 27.38876 | 123.18038 | 36087 ft | 471 kts | 222° |
| 2026-05-06 07:28 | 27.30848 | 123.11591 | 36086 ft | 471 kts | 223° |
| 2026-05-06 07:29 | 27.25511 | 123.07313 | 36085 ft | 469 kts | 223° |
| 2026-05-06 07:29 | 27.20163 | 123.03027 | 36088 ft | 472 kts | 223° |
| 2026-05-06 07:30 | 27.14821 | 122.98756 | 36085 ft | 469 kts | 223° |
| 2026-05-06 07:30 | 27.09485 | 122.94495 | 36085 ft | 469 kts | 223° |
| 2026-05-06 07:31 | 27.04125 | 122.90228 | 36085 ft | 469 kts | 223° |
| 2026-05-06 07:31 | 26.98817 | 122.86013 | 36087 ft | 469 kts | 223° |
| 2026-05-06 07:32 | 26.93465 | 122.81763 | 36087 ft | 469 kts | 223° |
| 2026-05-06 07:32 | 26.88150 | 122.77553 | 36085 ft | 465 kts | 223° |
| 2026-05-06 07:33 | 26.83527 | 122.73891 | 36085 ft | 468 kts | 223° |
| 2026-05-06 07:33 | 26.81042 | 122.71922 | 35914 ft | 464 kts | 223° |
| 2026-05-06 07:33 | 26.78684 | 122.70063 | 35649 ft | 455 kts | 223° |
| 2026-05-06 07:34 | 26.76102 | 122.68034 | 35357 ft | 445 kts | 223° |
| 2026-05-06 07:34 | 26.74822 | 122.67027 | 35207 ft | 440 kts | 223° |
| 2026-05-06 07:35 | 26.73850 | 122.66263 | 35092 ft | 436 kts | 223° |